ADDS METAR Data INFO
IDs: Format: Raw Decoded Include TAF

Data at: 2038 UTC 22 Feb 2018

KW75 222035Z AUTO 11005KT 10SM SCT007 BKN032 OVC038 14/13 A3038 RMK AO1 T01350128
KW75 222015Z AUTO 04005KT 10SM BKN030 OVC036 14/13 A3038 RMK AO1 T01370127
KW75 221955Z AUTO 05004KT 10SM OVC028 14/13 A3038 RMK AO1 T01350125
KW75 221935Z AUTO 11004KT 10SM BKN026 OVC031 13/12 A3039 RMK AO1 T01300123
KW75 221915Z AUTO 10005KT 10SM SCT020 OVC030 15/13 A3038 RMK AO1 T01460134
KW75 221855Z AUTO 10005KT 10SM SCT022 OVC028 15/14 A3038 RMK AO1 T01530136
KW75 221835Z AUTO 25005KT 10SM OVC020 21/18 A3039 RMK AO1 T02100184
KW75 221815Z AUTO 27005KT 10SM OVC020 21/18 A3040 RMK AO1 T02100183
KW75 221755Z AUTO 27004KT 10SM OVC018 21/18 A3041 RMK AO1 T02060182 10206 20154
KW75 221735Z AUTO 27005KT 10SM OVC016 21/18 A3042 RMK AO1 T02050181
KW75 221715Z AUTO 24005KT 10SM OVC016 20/18 A3042 RMK AO1 T02020181
KW75 221655Z AUTO 24006KT 10SM OVC016 20/18 A3043 RMK AO1 T02020181
KW75 221635Z AUTO 22008KT 10SM OVC016 21/18 A3044 RMK AO1 T02050184
KW75 221615Z AUTO 25006KT 210V270 10SM OVC014 20/18 A3044 RMK AO1 T02030184
KW75 221555Z AUTO 23005KT 10SM OVC012 20/19 A3045 RMK AO1 T02000186
KW75 221535Z AUTO 24005KT 10SM OVC012 20/19 A3045 RMK AO1 T01950185
KW75 221515Z AUTO 24004KT 10SM OVC010 19/19 A3045 RMK AO1 T01930188
KW75 221455Z AUTO 23004KT 10SM OVC008 19/19 A3044 RMK AO1 T01870187
KW75 221435Z AUTO 23005KT 10SM OVC006 19/19 A3044 RMK AO1 T01850185
KW75 221415Z AUTO 24005KT 10SM OVC006 18/18 A3044 RMK AO1 T01830183
KW75 221355Z AUTO 22003KT 10SM OVC006 18/18 A3044 RMK AO1 T01830183
KW75 221335Z AUTO 20003KT 10SM OVC006 18/18 A3043 RMK AO1 T01800180
KW75 221315Z AUTO 00000KT 10SM OVC006 17/17 A3043 RMK AO1 T01650165
KW75 221255Z AUTO 00000KT 10SM OVC006 16/16 A3043 RMK AO1 T01570157
KW75 221235Z AUTO 00000KT 10SM OVC006 16/16 A3043 RMK AO1 T01550155
KW75 221215Z AUTO 00000KT 10SM SCT006 BKN080 16/16 A3042 RMK AO1 T01570157
KW75 221155Z AUTO 21005KT 10SM OVC080 17/17 A3041 RMK AO1 T01710171 10184 20171
KW75 221135Z AUTO 20007KT 10SM BKN080 17/17 A3040 RMK AO1 T01710171
KW75 221115Z AUTO 21007KT 10SM SCT080 17/17 A3040 RMK AO1 T01720172
KW75 221055Z AUTO 21006KT 10SM CLR 17/17 A3039 RMK AO1 T01720172
KW75 221035Z AUTO 21007KT 10SM SCT080 17/17 A3039 RMK AO1 T01710171
KW75 221015Z AUTO 21007KT 10SM SCT080 17/17 A3039 RMK AO1 T01720172
KW75 220955Z AUTO 21006KT 10SM CLR 17/17 A3039 RMK AO1 T01730173
KW75 220935Z AUTO 21006KT 10SM CLR 17/17 A3039 RMK AO1 T01730173
KW75 220915Z AUTO 21007KT 10SM CLR 18/18 A3039 RMK AO1 T01750175
KW75 220855Z AUTO 21006KT 10SM CLR 18/18 A3039 RMK AO1 T01760176
KW75 220835Z AUTO 21006KT 10SM CLR 18/18 A3040 RMK AO1 T01780178
KW75 220815Z AUTO 21006KT 10SM CLR 18/18 A3039 RMK AO1 T01790179
KW75 220755Z AUTO 21007KT 10SM CLR 18/18 A3039 RMK AO1 T01800179
KW75 220735Z AUTO 21007KT 10SM CLR 18/18 A3039 RMK AO1 T01790177
KW75 220715Z AUTO 21007KT 10SM CLR 18/18 A3039 RMK AO1 T01780177
KW75 220655Z AUTO 21005KT 10SM CLR 18/18 A3039 RMK AO1 T01790177
KW75 220635Z AUTO 21006KT 10SM CLR 18/18 A3039 RMK AO1 T01800178
KW75 220615Z AUTO 21005KT 10SM CLR 18/18 A3039 RMK AO1 T01830180
KW75 220555Z AUTO 21006KT 10SM CLR 18/18 A3039 RMK AO1 T01830180 10211 20181
KW75 220535Z AUTO 21004KT 10SM CLR 18/18 A3039 RMK AO1 T01820179
KW75 220515Z AUTO 20004KT 10SM CLR 19/18 A3039 RMK AO1 T01850180
KW75 220455Z AUTO 20006KT 10SM CLR 19/18 A3039 RMK AO1 T01850180 402500157
KW75 220435Z AUTO 20005KT 10SM CLR 19/18 A3039 RMK AO1 T01860180
KW75 220415Z AUTO 20004KT 10SM CLR 19/18 A3039 RMK AO1 T01900181
KW75 220355Z AUTO 20006KT 10SM CLR 19/18 A3039 RMK AO1 T01930182
KW75 220035Z AUTO 20005KT 10SM CLR 21/18 A3036 RMK AO1 T02060180
KW75 220015Z AUTO 20005KT 10SM CLR 21/18 A3036 RMK AO1 T02100180
KW75 212355Z AUTO 18004KT 10SM CLR 21/18 A3036 RMK AO1 T02090179 10250 20209
KW75 212335Z AUTO 20003KT 10SM CLR 22/18 A3036 RMK AO1 T02150180
KW75 212315Z AUTO 19003KT 10SM CLR 22/18 A3036 RMK AO1 T02200180
KW75 212255Z AUTO 19004KT 10SM CLR 23/18 A3035 RMK AO1 T02250178
KW75 212235Z AUTO 20008KT 10SM CLR 23/18 A3035 RMK AO1 T02320178
KW75 212215Z AUTO 20008G14KT 10SM CLR 24/18 A3034 RMK AO1 T02370178
KW75 212155Z AUTO 21010G14KT 10SM CLR 24/18 A3035 RMK AO1 T02420177
KW75 212135Z AUTO 21012G16KT 10SM CLR 25/18 A3034 RMK AO1 T02450175
KW75 212115Z AUTO 22013G21KT 190V250 10SM CLR 25/17 A3033 RMK AO1 T02450173
KW75 212055Z AUTO 22012G20KT 200V260 10SM CLR 25/17 A3034 RMK AO1 T02470174
KW75 212035Z AUTO 21014G20KT 10SM CLR 25/18 A3034 RMK AO1 T02490175
KW75 212015Z AUTO 21010G22KT 10SM CLR 25/17 A3034 RMK AO1 T02470174
KW75 211955Z AUTO 22009G15KT 10SM CLR 25/18 A3034 RMK AO1 T02500177
KW75 211935Z AUTO 20013G20KT 10SM SCT034 25/18 A3035 RMK AO1 T02490178
KW75 211915Z AUTO 21013G18KT 10SM SCT030 25/18 A3035 RMK AO1 T02450177
KW75 211855Z AUTO 23007G17KT 10SM SCT030 25/18 A3036 RMK AO1 T02450180
KW75 211835Z AUTO 22011G18KT 10SM CLR 24/18 A3036 RMK AO1 T02430180
KW75 211815Z AUTO 21006KT 10SM CLR 24/18 A3037 RMK AO1 T02420181
KW75 211755Z AUTO 20012G16KT 10SM SCT028 24/18 A3039 RMK AO1 T02370180 10237 20181
KW75 211735Z AUTO 24012G18KT 10SM BKN028 23/18 A3040 RMK AO1 T02300176
KW75 211715Z AUTO 25005G16KT 10SM BKN026 OVC030 23/18 A3042 RMK AO1 T02280181
KW75 211655Z AUTO 24007G15KT 10SM OVC023 23/18 A3043 RMK AO1 T02250181
KW75 211635Z AUTO 22009G17KT 190V270 10SM OVC021 23/18 A3043 RMK AO1 T02270182
KW75 211615Z AUTO 24008G14KT 200V280 10SM BKN021 OVC025 22/18 A3043 RMK AO1 T02190183
KW75 211555Z AUTO 23007KT 10SM OVC021 22/18 A3044 RMK AO1 T02160183
KW75 211535Z AUTO 23007G18KT 10SM OVC017 21/19 A3043 RMK AO1 T02110185
KW75 211515Z AUTO 22014G20KT 10SM OVC017 21/18 A3043 RMK AO1 T02090184
KW75 211455Z AUTO 23009G17KT 10SM BKN017 21/18 A3043 RMK AO1 T02060182
KW75 211435Z AUTO 22007G18KT 190V250 10SM SCT017 20/18 A3043 RMK AO1 T02010181
KW75 211415Z AUTO 22009G16KT 190V250 10SM OVC017 20/18 A3043 RMK AO1 T01950181
KW75 211355Z AUTO 23006G18KT 10SM OVC013 19/18 A3043 RMK AO1 T01910184
KW75 211335Z AUTO 21009KT 180V240 10SM OVC013 19/19 A3042 RMK AO1 T01890186
KW75 211315Z AUTO 21007G14KT 10SM OVC013 19/18 A3042 RMK AO1 T01850183
KW75 211255Z AUTO 22007G16KT 10SM OVC011 18/18 A3043 RMK AO1 T01830183
KW75 211235Z AUTO 20006KT 10SM OVC011 18/18 A3042 RMK AO1 T01810181